createdAt,value
2022-11-29T00:04:49.847Z,94797.84
2022-11-29T00:09:51.799Z,94807.16
2022-11-29T00:14:53.611Z,94797.97
2022-11-29T00:19:55.695Z,94788.47
2022-11-29T00:24:57.692Z,94797.22
2022-11-29T00:29:59.548Z,94783.81
2022-11-29T00:35:06.603Z,94789.63
2022-11-29T00:40:11.777Z,94780.09
2022-11-29T00:45:13.672Z,94774.63
2022-11-29T00:50:15.777Z,94763.50
2022-11-29T00:55:17.776Z,94770.97
2022-11-29T01:00:19.908Z,94780.28
2022-11-29T01:05:21.854Z,94759.81
2022-11-29T01:10:24.103Z,94748.19
2022-11-29T01:15:26.272Z,94764.34
2022-11-29T01:20:28.476Z,94754.88
2022-11-29T01:26:00.331Z,94755.00
2022-11-29T01:31:17.104Z,94762.78
2022-11-29T01:36:19.072Z,94756.97
2022-11-29T01:41:23.568Z,94745.41
2022-11-29T01:46:26.636Z,94744.06
2022-11-29T01:51:29.447Z,94734.13
2022-11-29T01:56:34.209Z,94747.91
2022-11-29T02:01:37.855Z,94726.53
2022-11-29T02:06:40.365Z,94743.03
2022-11-29T02:12:16.067Z,94739.34
2022-11-29T02:17:21.108Z,94713.88
2022-11-29T02:22:34.896Z,94741.53
2022-11-29T02:28:12.579Z,94746.31
2022-11-29T02:33:26.424Z,94746.88
2022-11-29T02:38:34.040Z,94749.03
2022-11-29T02:44:29.923Z,94746.97
2022-11-29T02:49:50.273Z,94735.34
2022-11-29T02:55:13.772Z,94730.16
2022-11-29T03:00:19.929Z,94734.13
2022-11-29T03:05:49.930Z,94682.81
2022-11-29T03:11:19.254Z,94678.28
2022-11-29T03:16:29.824Z,94712.25
2022-11-29T03:21:37.344Z,94723.00
2022-11-29T03:26:52.041Z,94687.53
2022-11-29T03:32:10.093Z,94722.53
2022-11-29T03:44:26.801Z,94699.47
2022-11-29T03:49:34.573Z,94712.47
2022-11-29T03:55:08.714Z,94697.47
2022-11-29T04:00:12.874Z,94706.25
2022-11-29T04:05:48.462Z,94704.94
2022-11-29T04:11:15.302Z,94693.38
2022-11-29T04:16:38.739Z,94709.16
2022-11-29T04:21:59.265Z,94711.84
2022-11-29T04:27:36.419Z,94706.03
2022-11-29T04:33:03.507Z,94713.69
2022-11-29T04:38:29.468Z,94705.22
2022-11-29T04:44:06.344Z,94730.03
2022-11-29T04:49:26.225Z,94719.47
2022-11-29T05:02:10.973Z,94720.28
2022-11-29T05:07:44.967Z,94742.19
2022-11-29T05:12:59.456Z,94741.66
2022-11-29T05:18:20.211Z,94729.03
2022-11-29T05:23:37.323Z,94724.28
2022-11-29T05:35:35.957Z,94732.47
2022-11-29T05:40:50.075Z,94707.97
2022-11-29T05:46:05.161Z,94724.81
2022-11-29T05:51:23.529Z,94732.72
2022-11-29T05:56:28.152Z,94738.00
2022-11-29T06:02:11.756Z,94724.81
2022-11-29T06:07:21.103Z,94706.91
2022-11-29T06:12:24.981Z,94682.13
2022-11-29T06:18:02.546Z,94706.91
2022-11-29T06:23:24.328Z,94680.28
2022-11-29T06:28:44.718Z,94707.16
2022-11-29T06:34:11.215Z,94720.38
2022-11-29T06:39:13.527Z,94687.13
2022-11-29T06:44:15.793Z,94668.94
2022-11-29T06:49:40.320Z,94703.75
2022-11-29T06:54:55.964Z,94718.50
2022-11-29T07:00:17.713Z,94709.28
2022-11-29T07:05:29.220Z,94726.16
2022-11-29T07:10:32.882Z,94706.91
2022-11-29T07:16:04.201Z,94711.91
2022-11-29T07:21:16.466Z,94716.13
2022-11-29T07:26:24.296Z,94727.47
2022-11-29T07:31:35.852Z,94731.66
2022-11-29T07:36:50.365Z,94698.22
2022-11-29T07:42:01.015Z,94714.56
2022-11-29T07:54:18.473Z,94719.00
2022-11-29T07:59:20.666Z,94739.59
2022-11-29T08:11:35.705Z,94771.75
2022-11-29T08:16:37.804Z,94775.72
2022-11-29T08:28:52.611Z,94731.16
2022-11-29T08:33:54.619Z,94763.59
2022-11-29T08:39:03.523Z,94765.97
2022-11-29T08:44:09.958Z,94747.22
2022-11-29T08:49:11.798Z,94746.66
2022-11-29T08:54:13.674Z,94761.34
2022-11-29T08:59:15.630Z,94736.44
2022-11-29T09:04:17.824Z,94745.75
2022-11-29T09:09:19.695Z,94741.66
2022-11-29T09:14:23.095Z,94715.91
2022-11-29T09:19:25.277Z,94755.94
2022-11-29T09:24:27.204Z,94751.28
2022-11-29T09:29:29.241Z,94736.63
2022-11-29T09:34:31.188Z,94751.94
2022-11-29T09:47:00.510Z,94753.09
2022-11-29T09:52:29.836Z,94754.63
2022-11-29T09:57:31.757Z,94761.13
2022-11-29T10:02:45.699Z,94763.16
2022-11-29T10:08:02.422Z,94743.56
2022-11-29T10:13:11.246Z,94760.13
2022-11-29T10:18:22.221Z,94732.72
2022-11-29T10:23:44.400Z,94765.53
2022-11-29T10:28:48.701Z,94758.56
2022-11-29T10:33:50.948Z,94739.53
2022-11-29T10:45:56.294Z,94748.91
2022-11-29T10:50:58.809Z,94750.59
2022-11-29T10:56:23.299Z,94744.41
2022-11-29T11:01:28.335Z,94744.03
2022-11-29T11:06:51.670Z,94739.06
2022-11-29T11:12:22.909Z,94739.47
2022-11-29T11:17:36.676Z,94699.47
2022-11-29T11:30:07.416Z,94708.00
2022-11-29T11:35:22.870Z,94691.75
2022-11-29T11:40:30.665Z,94679.84
2022-11-29T11:45:36.868Z,94681.03
2022-11-29T11:50:44.819Z,94668.41
2022-11-29T11:56:01.268Z,94665.41
2022-11-29T12:01:12.646Z,94665.81
2022-11-29T12:06:26.446Z,94658.56
2022-11-29T12:11:34.271Z,94668.16
2022-11-29T12:16:38.564Z,94664.31
2022-11-29T12:21:44.352Z,94651.34
2022-11-29T12:27:03.149Z,94600.22
2022-11-29T12:32:17.482Z,94623.34
2022-11-29T12:37:28.214Z,94594.22
2022-11-29T12:42:36.379Z,94622.88
2022-11-29T12:47:48.817Z,94612.53
2022-11-29T12:53:15.023Z,94613.13
2022-11-29T12:58:16.873Z,94611.44
2022-11-29T13:03:29.819Z,94606.19
2022-11-29T13:08:49.694Z,94585.84
2022-11-29T13:14:34.808Z,94545.53
2022-11-29T13:19:35.751Z,94562.06
2022-11-29T13:24:48.017Z,94559.25
2022-11-29T13:29:50.900Z,94549.81
2022-11-29T13:34:53.725Z,94512.00
2022-11-29T13:40:13.843Z,94535.41
2022-11-29T13:45:23.020Z,94520.38
2022-11-29T13:50:41.344Z,94520.06
2022-11-29T13:56:00.231Z,94512.19
2022-11-29T14:01:06.726Z,94509.06
2022-11-29T14:06:23.101Z,94515.66
2022-11-29T14:11:33.140Z,94513.28
2022-11-29T14:16:43.915Z,94502.50
2022-11-29T14:22:07.252Z,94496.50
2022-11-29T14:27:14.720Z,94482.53
2022-11-29T14:32:26.572Z,94484.13
2022-11-29T14:37:37.671Z,94484.25
2022-11-29T14:42:47.139Z,94476.91
2022-11-29T14:47:49.489Z,94482.22
2022-11-29T14:52:52.452Z,94468.75
2022-11-29T14:58:08.761Z,94471.09
2022-11-29T15:03:36.967Z,94459.81
2022-11-29T15:08:41.769Z,94450.38
2022-11-29T15:13:55.141Z,94417.78
2022-11-29T15:19:26.895Z,94437.69
2022-11-29T15:24:29.082Z,94451.81
2022-11-29T15:29:32.904Z,94439.91
2022-11-29T15:34:37.800Z,94437.53
2022-11-29T15:39:40.284Z,94466.53
2022-11-29T15:44:46.303Z,94471.09
2022-11-29T15:49:50.656Z,94473.25
2022-11-29T15:55:24.531Z,94477.47
2022-11-29T16:00:28.420Z,94484.00
2022-11-29T16:05:38.087Z,94481.09
2022-11-29T16:10:44.235Z,94477.94
2022-11-29T16:15:46.331Z,94484.50
2022-11-29T16:21:05.972Z,94470.34
2022-11-29T16:26:20.252Z,94474.69
2022-11-29T16:31:25.035Z,94479.97
2022-11-29T16:36:27.669Z,94470.53
2022-11-29T16:41:29.568Z,94481.81
2022-11-29T16:46:34.716Z,94486.25
2022-11-29T16:51:46.053Z,94480.56
2022-11-29T16:56:48.430Z,94476.03
2022-11-29T17:01:50.646Z,94474.50
2022-11-29T17:06:54.491Z,94475.53
2022-11-29T17:11:56.904Z,94476.44
2022-11-29T17:17:02.513Z,94466.59
2022-11-29T17:22:04.590Z,94468.88
2022-11-29T17:27:06.968Z,94466.94
2022-11-29T17:32:08.896Z,94466.75
2022-11-29T17:37:10.797Z,94461.50
2022-11-29T17:42:12.852Z,94472.00
2022-11-29T17:47:15.093Z,94469.16
2022-11-29T17:52:17.031Z,94438.91
2022-11-29T17:57:20.090Z,94455.44
2022-11-29T18:02:22.090Z,94485.72
2022-11-29T18:07:24.160Z,94488.88
2022-11-29T18:12:26.183Z,94483.75
2022-11-29T18:17:28.136Z,94480.31
2022-11-29T18:22:30.173Z,94448.97
2022-11-29T18:27:32.135Z,94489.44
2022-11-29T18:32:34.112Z,94477.38
2022-11-29T18:38:12.930Z,94470.38
2022-11-29T18:42:58.008Z,94471.59
2022-11-29T18:47:59.956Z,94430.63
2022-11-29T18:53:01.898Z,94457.63
2022-11-29T18:58:04.145Z,94435.03
2022-11-29T19:03:06.091Z,94472.88
2022-11-29T19:08:08.110Z,94470.91
2022-11-29T19:13:09.968Z,94474.56
2022-11-29T19:18:17.939Z,94493.00
2022-11-29T19:23:32.794Z,94488.28
2022-11-29T19:35:58.767Z,94480.63
2022-11-29T19:41:12.077Z,94486.72
2022-11-29T19:46:15.605Z,94488.00
2022-11-29T19:51:25.624Z,94503.72
2022-11-29T19:56:28.428Z,94501.63
2022-11-29T20:01:40.843Z,94484.16
2022-11-29T20:06:47.747Z,94479.41
2022-11-29T20:11:55.852Z,94475.72
2022-11-29T20:17:10.754Z,94476.47
2022-11-29T20:22:12.813Z,94440.78
2022-11-29T20:27:15.987Z,94474.84
2022-11-29T20:32:18.645Z,94466.09
2022-11-29T20:37:39.021Z,94475.41
2022-11-29T20:42:46.872Z,94482.56
2022-11-29T20:48:13.237Z,94480.09
2022-11-29T20:53:22.549Z,94481.16
2022-11-29T20:58:26.706Z,94482.25
2022-11-29T21:03:29.263Z,94482.72
2022-11-29T21:08:31.636Z,94472.72
2022-11-29T21:13:34.340Z,94467.91
2022-11-29T21:18:37.173Z,94473.13
2022-11-29T21:23:57.451Z,94485.53
2022-11-29T21:29:10.611Z,94454.44
2022-11-29T21:34:14.713Z,94440.94
2022-11-29T21:39:16.908Z,94453.38
2022-11-29T21:45:02.929Z,94444.03
2022-11-29T21:50:05.449Z,94439.72
2022-11-29T21:55:07.800Z,94434.00
2022-11-29T22:00:09.980Z,94422.78
2022-11-29T22:05:11.853Z,94400.47
2022-11-29T22:10:13.926Z,94450.19
2022-11-29T22:21:56.523Z,94411.16
2022-11-29T22:26:59.881Z,94420.91
2022-11-29T22:32:02.564Z,94394.22
2022-11-29T22:37:04.563Z,94384.56
2022-11-29T22:42:07.353Z,94396.44
2022-11-29T22:47:09.336Z,94393.88
2022-11-29T22:52:11.273Z,94421.13
2022-11-29T22:57:13.216Z,94417.56
2022-11-29T23:02:15.438Z,94425.09
2022-11-29T23:07:17.410Z,94416.00
2022-11-29T23:12:19.643Z,94392.69
2022-11-29T23:17:21.528Z,94365.66
2022-11-29T23:22:23.425Z,94403.13
2022-11-29T23:27:25.475Z,94402.91
2022-11-29T23:32:27.367Z,94404.06
2022-11-29T23:37:29.374Z,94413.06
2022-11-29T23:42:31.242Z,94409.91
2022-11-29T23:47:33.154Z,94372.91
2022-11-29T23:52:34.983Z,94376.63
2022-11-29T23:57:38.268Z,94399.91
